sensor_id;sensor_type;location;lat;lon;timestamp;P1;durP1;ratioP1;P2;durP2;ratioP2
14470;SDS011;7321;50.802;4.336;2024-03-23T00:53:43;10.23;;;3.90;;
14470;SDS011;7321;50.802;4.336;2024-03-23T00:56:11;10.57;;;4.60;;
14470;SDS011;7321;50.802;4.336;2024-03-23T00:58:37;9.17;;;5.17;;
14470;SDS011;7321;50.802;4.336;2024-03-23T01:01:05;7.30;;;4.57;;
14470;SDS011;7321;50.802;4.336;2024-03-23T01:03:31;11.87;;;4.63;;
14470;SDS011;7321;50.802;4.336;2024-03-23T01:06:00;11.63;;;4.90;;
14470;SDS011;7321;50.802;4.336;2024-03-23T01:08:30;8.13;;;4.40;;
14470;SDS011;7321;50.802;4.336;2024-03-23T01:10:57;9.33;;;4.67;;
14470;SDS011;7321;50.802;4.336;2024-03-23T01:13:29;8.97;;;4.37;;
14470;SDS011;7321;50.802;4.336;2024-03-23T01:15:56;14.10;;;5.40;;
14470;SDS011;7321;50.802;4.336;2024-03-23T01:18:30;8.90;;;4.90;;
14470;SDS011;7321;50.802;4.336;2024-03-23T01:20:58;9.27;;;5.07;;
14470;SDS011;7321;50.802;4.336;2024-03-23T01:23:24;11.73;;;5.50;;
14470;SDS011;7321;50.802;4.336;2024-03-23T01:25:53;11.47;;;4.60;;
14470;SDS011;7321;50.802;4.336;2024-03-23T01:28:20;8.37;;;4.73;;
14470;SDS011;7321;50.802;4.336;2024-03-23T01:30:46;10.67;;;5.50;;
14470;SDS011;7321;50.802;4.336;2024-03-23T01:33:12;11.20;;;6.03;;
14470;SDS011;7321;50.802;4.336;2024-03-23T01:35:39;10.90;;;6.20;;
14470;SDS011;7321;50.802;4.336;2024-03-23T01:38:05;12.30;;;7.00;;
14470;SDS011;7321;50.802;4.336;2024-03-23T01:40:33;12.93;;;6.47;;
14470;SDS011;7321;50.802;4.336;2024-03-23T01:43:03;12.07;;;6.83;;
14470;SDS011;7321;50.802;4.336;2024-03-23T01:45:36;13.50;;;6.47;;
14470;SDS011;7321;50.802;4.336;2024-03-23T01:48:02;9.67;;;5.87;;
14470;SDS011;7321;50.802;4.336;2024-03-23T01:50:29;11.13;;;6.37;;
14470;SDS011;7321;50.802;4.336;2024-03-23T01:53:02;11.17;;;6.27;;
14470;SDS011;7321;50.802;4.336;2024-03-23T01:55:38;9.13;;;5.67;;
14470;SDS011;7321;50.802;4.336;2024-03-23T01:58:04;13.50;;;6.53;;
14470;SDS011;7321;50.802;4.336;2024-03-23T02:00:30;13.10;;;6.93;;
14470;SDS011;7321;50.802;4.336;2024-03-23T02:02:56;11.33;;;6.37;;
14470;SDS011;7321;50.802;4.336;2024-03-23T02:05:22;11.30;;;6.83;;
14470;SDS011;7321;50.802;4.336;2024-03-23T02:07:48;13.23;;;6.93;;
14470;SDS011;7321;50.802;4.336;2024-03-23T02:10:16;13.30;;;7.27;;
14470;SDS011;7321;50.802;4.336;2024-03-23T02:12:42;12.67;;;6.93;;
14470;SDS011;7321;50.802;4.336;2024-03-23T02:15:11;14.33;;;7.10;;
14470;SDS011;7321;50.802;4.336;2024-03-23T02:17:37;12.27;;;7.07;;
14470;SDS011;7321;50.802;4.336;2024-03-23T02:20:02;12.90;;;7.87;;
14470;SDS011;7321;50.802;4.336;2024-03-23T02:22:37;14.37;;;7.13;;
14470;SDS011;7321;50.802;4.336;2024-03-23T02:25:04;16.77;;;8.23;;
14470;SDS011;7321;50.802;4.336;2024-03-23T02:27:31;13.00;;;8.03;;
14470;SDS011;7321;50.802;4.336;2024-03-23T02:29:58;16.73;;;8.47;;
14470;SDS011;7321;50.802;4.336;2024-03-23T02:32:23;15.80;;;8.87;;
14470;SDS011;7321;50.802;4.336;2024-03-23T02:34:50;19.97;;;9.60;;
14470;SDS011;7321;50.802;4.336;2024-03-23T02:37:16;15.33;;;8.87;;
14470;SDS011;7321;50.802;4.336;2024-03-23T02:39:44;14.67;;;9.57;;
14470;SDS011;7321;50.802;4.336;2024-03-23T02:42:14;16.23;;;8.83;;
14470;SDS011;7321;50.802;4.336;2024-03-23T02:44:43;21.43;;;9.20;;
14470;SDS011;7321;50.802;4.336;2024-03-23T02:47:09;16.03;;;10.80;;
14470;SDS011;7321;50.802;4.336;2024-03-23T02:49:35;20.00;;;10.27;;
14470;SDS011;7321;50.802;4.336;2024-03-23T02:52:01;21.33;;;10.93;;
14470;SDS011;7321;50.802;4.336;2024-03-23T02:54:27;18.77;;;10.47;;
14470;SDS011;7321;50.802;4.336;2024-03-23T02:56:53;16.13;;;10.57;;
14470;SDS011;7321;50.802;4.336;2024-03-23T02:59:18;19.80;;;10.57;;
14470;SDS011;7321;50.802;4.336;2024-03-23T03:01:44;17.70;;;10.93;;
14470;SDS011;7321;50.802;4.336;2024-03-23T03:04:10;17.83;;;10.90;;
14470;SDS011;7321;50.802;4.336;2024-03-23T03:06:36;17.93;;;11.47;;
14470;SDS011;7321;50.802;4.336;2024-03-23T03:09:02;19.70;;;11.93;;
14470;SDS011;7321;50.802;4.336;2024-03-23T03:11:28;21.53;;;12.60;;
14470;SDS011;7321;50.802;4.336;2024-03-23T03:13:54;17.57;;;11.93;;
14470;SDS011;7321;50.802;4.336;2024-03-23T03:16:25;17.53;;;12.10;;
14470;SDS011;7321;50.802;4.336;2024-03-23T03:18:52;22.57;;;13.57;;
14470;SDS011;7321;50.802;4.336;2024-03-23T03:21:18;19.20;;;12.03;;
14470;SDS011;7321;50.802;4.336;2024-03-23T03:23:44;18.90;;;13.00;;
14470;SDS011;7321;50.802;4.336;2024-03-23T03:26:10;22.97;;;13.80;;
14470;SDS011;7321;50.802;4.336;2024-03-23T03:28:36;25.43;;;13.97;;
14470;SDS011;7321;50.802;4.336;2024-03-23T03:31:02;22.10;;;14.03;;
14470;SDS011;7321;50.802;4.336;2024-03-23T03:33:28;21.47;;;14.27;;
14470;SDS011;7321;50.802;4.336;2024-03-23T03:35:54;23.30;;;13.57;;
14470;SDS011;7321;50.802;4.336;2024-03-23T03:38:20;18.97;;;14.50;;
14470;SDS011;7321;50.802;4.336;2024-03-23T03:40:46;23.07;;;15.80;;
14470;SDS011;7321;50.802;4.336;2024-03-23T03:43:12;25.57;;;13.73;;
14470;SDS011;7321;50.802;4.336;2024-03-23T03:45:38;21.07;;;13.87;;
14470;SDS011;7321;50.802;4.336;2024-03-23T03:48:04;24.23;;;14.83;;
14470;SDS011;7321;50.802;4.336;2024-03-23T03:50:31;19.50;;;13.97;;
14470;SDS011;7321;50.802;4.336;2024-03-23T03:52:56;20.30;;;15.07;;
14470;SDS011;7321;50.802;4.336;2024-03-23T03:55:22;23.63;;;14.80;;
14470;SDS011;7321;50.802;4.336;2024-03-23T03:57:48;22.93;;;14.03;;
14470;SDS011;7321;50.802;4.336;2024-03-23T04:00:14;20.97;;;14.53;;
14470;SDS011;7321;50.802;4.336;2024-03-23T04:02:41;22.83;;;14.33;;
14470;SDS011;7321;50.802;4.336;2024-03-23T04:05:07;23.80;;;14.00;;
14470;SDS011;7321;50.802;4.336;2024-03-23T04:07:33;23.77;;;15.73;;
14470;SDS011;7321;50.802;4.336;2024-03-23T04:09:59;19.67;;;13.30;;
14470;SDS011;7321;50.802;4.336;2024-03-23T04:12:25;23.37;;;14.00;;
14470;SDS011;7321;50.802;4.336;2024-03-23T04:14:51;19.17;;;12.80;;
14470;SDS011;7321;50.802;4.336;2024-03-23T04:17:16;18.87;;;12.13;;
14470;SDS011;7321;50.802;4.336;2024-03-23T04:19:43;20.53;;;11.67;;
14470;SDS011;7321;50.802;4.336;2024-03-23T04:22:09;19.43;;;12.20;;
14470;SDS011;7321;50.802;4.336;2024-03-23T04:24:35;17.33;;;11.50;;
14470;SDS011;7321;50.802;4.336;2024-03-23T04:27:01;19.40;;;12.00;;
14470;SDS011;7321;50.802;4.336;2024-03-23T04:29:28;18.97;;;10.77;;
14470;SDS011;7321;50.802;4.336;2024-03-23T04:31:54;16.10;;;10.27;;
14470;SDS011;7321;50.802;4.336;2024-03-23T04:34:20;16.23;;;9.40;;
14470;SDS011;7321;50.802;4.336;2024-03-23T04:36:47;16.73;;;9.80;;
14470;SDS011;7321;50.802;4.336;2024-03-23T04:39:13;16.97;;;9.83;;
14470;SDS011;7321;50.802;4.336;2024-03-23T04:41:39;17.87;;;10.03;;
14470;SDS011;7321;50.802;4.336;2024-03-23T04:44:05;16.10;;;9.90;;
14470;SDS011;7321;50.802;4.336;2024-03-23T04:46:31;19.93;;;10.13;;
14470;SDS011;7321;50.802;4.336;2024-03-23T04:48:57;14.87;;;9.30;;
14470;SDS011;7321;50.802;4.336;2024-03-23T04:51:23;14.93;;;9.17;;
14470;SDS011;7321;50.802;4.336;2024-03-23T04:53:49;19.17;;;9.27;;
14470;SDS011;7321;50.802;4.336;2024-03-23T04:56:15;18.40;;;9.23;;
14470;SDS011;7321;50.802;4.336;2024-03-23T04:58:42;13.90;;;7.83;;
14470;SDS011;7321;50.802;4.336;2024-03-23T05:01:09;16.80;;;8.20;;
14470;SDS011;7321;50.802;4.336;2024-03-23T05:03:35;14.53;;;7.50;;
14470;SDS011;7321;50.802;4.336;2024-03-23T05:06:01;14.23;;;7.00;;
14470;SDS011;7321;50.802;4.336;2024-03-23T05:08:27;13.10;;;7.00;;
14470;SDS011;7321;50.802;4.336;2024-03-23T05:10:53;13.50;;;7.27;;
14470;SDS011;7321;50.802;4.336;2024-03-23T05:13:19;16.13;;;7.57;;
14470;SDS011;7321;50.802;4.336;2024-03-23T05:15:50;15.27;;;7.40;;
14470;SDS011;7321;50.802;4.336;2024-03-23T05:18:19;19.63;;;8.90;;
14470;SDS011;7321;50.802;4.336;2024-03-23T05:20:45;22.00;;;8.63;;
14470;SDS011;7321;50.802;4.336;2024-03-23T05:23:11;13.27;;;8.60;;
14470;SDS011;7321;50.802;4.336;2024-03-23T05:25:37;14.73;;;8.90;;
14470;SDS011;7321;50.802;4.336;2024-03-23T05:28:03;15.77;;;9.07;;
14470;SDS011;7321;50.802;4.336;2024-03-23T05:30:29;14.00;;;8.80;;
14470;SDS011;7321;50.802;4.336;2024-03-23T05:32:54;12.97;;;8.97;;
14470;SDS011;7321;50.802;4.336;2024-03-23T05:35:20;17.37;;;8.73;;
14470;SDS011;7321;50.802;4.336;2024-03-23T05:37:46;14.83;;;7.77;;
14470;SDS011;7321;50.802;4.336;2024-03-23T05:40:12;14.77;;;7.43;;
14470;SDS011;7321;50.802;4.336;2024-03-23T05:42:40;19.00;;;7.73;;
14470;SDS011;7321;50.802;4.336;2024-03-23T05:45:06;14.07;;;6.90;;
14470;SDS011;7321;50.802;4.336;2024-03-23T05:47:33;13.63;;;6.57;;
14470;SDS011;7321;50.802;4.336;2024-03-23T05:49:59;12.53;;;5.60;;
14470;SDS011;7321;50.802;4.336;2024-03-23T05:52:25;12.67;;;5.33;;
14470;SDS011;7321;50.802;4.336;2024-03-23T05:54:52;12.07;;;5.30;;
14470;SDS011;7321;50.802;4.336;2024-03-23T05:57:18;13.43;;;5.00;;
14470;SDS011;7321;50.802;4.336;2024-03-23T05:59:44;9.37;;;3.87;;
14470;SDS011;7321;50.802;4.336;2024-03-23T06:02:10;7.73;;;3.77;;
14470;SDS011;7321;50.802;4.336;2024-03-23T06:04:36;12.43;;;4.07;;
14470;SDS011;7321;50.802;4.336;2024-03-23T06:07:02;13.37;;;4.37;;
14470;SDS011;7321;50.802;4.336;2024-03-23T06:09:31;12.97;;;4.30;;
14470;SDS011;7321;50.802;4.336;2024-03-23T06:11:57;10.53;;;3.80;;
14470;SDS011;7321;50.802;4.336;2024-03-23T06:14:23;10.83;;;3.60;;
14470;SDS011;7321;50.802;4.336;2024-03-23T06:16:49;13.70;;;3.93;;
14470;SDS011;7321;50.802;4.336;2024-03-23T06:19:14;11.33;;;4.23;;
14470;SDS011;7321;50.802;4.336;2024-03-23T06:21:44;9.00;;;3.43;;
14470;SDS011;7321;50.802;4.336;2024-03-23T06:24:10;11.40;;;3.30;;
14470;SDS011;7321;50.802;4.336;2024-03-23T06:26:37;8.90;;;3.93;;
14470;SDS011;7321;50.802;4.336;2024-03-23T06:29:03;12.43;;;4.47;;
14470;SDS011;7321;50.802;4.336;2024-03-23T06:31:30;11.00;;;3.80;;
14470;SDS011;7321;50.802;4.336;2024-03-23T06:33:56;9.63;;;3.83;;
14470;SDS011;7321;50.802;4.336;2024-03-23T06:36:22;8.67;;;3.53;;
14470;SDS011;7321;50.802;4.336;2024-03-23T06:38:48;11.27;;;3.87;;
14470;SDS011;7321;50.802;4.336;2024-03-23T06:41:14;8.93;;;3.43;;
14470;SDS011;7321;50.802;4.336;2024-03-23T06:43:40;11.73;;;4.60;;
14470;SDS011;7321;50.802;4.336;2024-03-23T06:46:06;10.43;;;4.03;;
14470;SDS011;7321;50.802;4.336;2024-03-23T06:48:32;12.00;;;4.10;;
14470;SDS011;7321;50.802;4.336;2024-03-23T06:50:58;13.53;;;4.00;;
14470;SDS011;7321;50.802;4.336;2024-03-23T06:53:24;10.67;;;3.60;;
14470;SDS011;7321;50.802;4.336;2024-03-23T06:55:50;12.80;;;3.70;;
14470;SDS011;7321;50.802;4.336;2024-03-23T06:58:18;11.27;;;3.03;;
14470;SDS011;7321;50.802;4.336;2024-03-23T07:00:45;13.30;;;4.13;;
14470;SDS011;7321;50.802;4.336;2024-03-23T07:03:11;18.23;;;6.23;;
14470;SDS011;7321;50.802;4.336;2024-03-23T07:05:37;12.77;;;4.30;;
14470;SDS011;7321;50.802;4.336;2024-03-23T07:08:03;8.97;;;3.40;;
14470;SDS011;7321;50.802;4.336;2024-03-23T07:10:30;9.10;;;2.87;;
14470;SDS011;7321;50.802;4.336;2024-03-23T07:12:55;12.03;;;3.73;;
14470;SDS011;7321;50.802;4.336;2024-03-23T07:15:21;8.90;;;3.53;;
14470;SDS011;7321;50.802;4.336;2024-03-23T07:17:47;8.33;;;3.33;;
14470;SDS011;7321;50.802;4.336;2024-03-23T07:20:13;9.53;;;3.70;;
14470;SDS011;7321;50.802;4.336;2024-03-23T07:22:39;8.27;;;3.80;;
14470;SDS011;7321;50.802;4.336;2024-03-23T07:25:05;13.73;;;3.53;;
14470;SDS011;7321;50.802;4.336;2024-03-23T07:27:32;9.47;;;2.93;;
14470;SDS011;7321;50.802;4.336;2024-03-23T07:29:59;10.50;;;3.63;;
14470;SDS011;7321;50.802;4.336;2024-03-23T07:32:26;11.10;;;3.77;;
14470;SDS011;7321;50.802;4.336;2024-03-23T07:34:52;10.50;;;3.07;;
14470;SDS011;7321;50.802;4.336;2024-03-23T07:37:18;8.77;;;3.40;;
14470;SDS011;7321;50.802;4.336;2024-03-23T07:39:44;7.93;;;3.60;;
14470;SDS011;7321;50.802;4.336;2024-03-23T07:42:10;10.47;;;3.40;;
14470;SDS011;7321;50.802;4.336;2024-03-23T07:44:36;9.73;;;3.27;;
14470;SDS011;7321;50.802;4.336;2024-03-23T07:47:02;9.00;;;3.60;;
14470;SDS011;7321;50.802;4.336;2024-03-23T07:49:28;12.03;;;3.37;;
14470;SDS011;7321;50.802;4.336;2024-03-23T07:51:54;9.17;;;3.40;;
14470;SDS011;7321;50.802;4.336;2024-03-23T07:54:20;11.63;;;3.67;;
14470;SDS011;7321;50.802;4.336;2024-03-23T07:56:46;9.87;;;3.53;;
14470;SDS011;7321;50.802;4.336;2024-03-23T07:59:12;11.03;;;3.37;;
14470;SDS011;7321;50.802;4.336;2024-03-23T08:01:38;14.70;;;4.33;;
14470;SDS011;7321;50.802;4.336;2024-03-23T08:04:05;8.97;;;3.40;;
14470;SDS011;7321;50.802;4.336;2024-03-23T08:06:31;10.10;;;3.73;;
14470;SDS011;7321;50.802;4.336;2024-03-23T08:08:57;14.00;;;4.70;;
14470;SDS011;7321;50.802;4.336;2024-03-23T08:11:28;8.77;;;3.13;;
14470;SDS011;7321;50.802;4.336;2024-03-23T08:13:55;11.33;;;4.37;;
14470;SDS011;7321;50.802;4.336;2024-03-23T08:16:22;11.70;;;4.10;;
14470;SDS011;7321;50.802;4.336;2024-03-23T08:18:48;7.10;;;2.97;;
14470;SDS011;7321;50.802;4.336;2024-03-23T08:21:17;10.73;;;3.83;;
14470;SDS011;7321;50.802;4.336;2024-03-23T08:23:43;11.77;;;3.70;;
14470;SDS011;7321;50.802;4.336;2024-03-23T08:26:11;12.77;;;3.50;;
14470;SDS011;7321;50.802;4.336;2024-03-23T08:28:38;8.33;;;3.97;;
14470;SDS011;7321;50.802;4.336;2024-03-23T08:31:08;13.77;;;3.40;;
14470;SDS011;7321;50.802;4.336;2024-03-23T08:33:35;8.37;;;3.10;;
14470;SDS011;7321;50.802;4.336;2024-03-23T08:36:02;8.27;;;4.17;;
14470;SDS011;7321;50.802;4.336;2024-03-23T08:38:29;9.97;;;3.40;;
14470;SDS011;7321;50.802;4.336;2024-03-23T08:40:58;8.83;;;3.27;;
14470;SDS011;7321;50.802;4.336;2024-03-23T08:43:29;10.63;;;3.77;;
14470;SDS011;7321;50.802;4.336;2024-03-23T08:46:08;8.30;;;3.50;;
14470;SDS011;7321;50.802;4.336;2024-03-23T08:48:39;10.20;;;3.90;;
14470;SDS011;7321;50.802;4.336;2024-03-23T08:51:06;9.43;;;3.97;;
14470;SDS011;7321;50.802;4.336;2024-03-23T08:53:34;10.80;;;3.37;;
14470;SDS011;7321;50.802;4.336;2024-03-23T08:56:00;7.40;;;3.23;;
14470;SDS011;7321;50.802;4.336;2024-03-23T08:58:28;9.33;;;3.50;;
14470;SDS011;7321;50.802;4.336;2024-03-23T09:00:55;9.63;;;3.40;;
14470;SDS011;7321;50.802;4.336;2024-03-23T09:03:23;9.57;;;3.70;;
14470;SDS011;7321;50.802;4.336;2024-03-23T09:05:52;10.33;;;3.77;;
14470;SDS011;7321;50.802;4.336;2024-03-23T09:08:21;7.67;;;3.20;;
14470;SDS011;7321;50.802;4.336;2024-03-23T09:10:50;11.37;;;4.90;;
14470;SDS011;7321;50.802;4.336;2024-03-23T09:13:16;9.93;;;3.90;;
14470;SDS011;7321;50.802;4.336;2024-03-23T09:15:51;14.87;;;3.60;;
14470;SDS011;7321;50.802;4.336;2024-03-23T09:18:21;9.83;;;3.43;;
14470;SDS011;7321;50.802;4.336;2024-03-23T09:20:47;8.07;;;3.23;;
14470;SDS011;7321;50.802;4.336;2024-03-23T09:23:13;7.23;;;3.87;;
14470;SDS011;7321;50.802;4.336;2024-03-23T09:25:39;9.03;;;3.57;;
14470;SDS011;7321;50.802;4.336;2024-03-23T09:28:05;7.07;;;3.30;;
14470;SDS011;7321;50.802;4.336;2024-03-23T09:30:34;9.87;;;3.77;;
14470;SDS011;7321;50.802;4.336;2024-03-23T09:33:00;9.73;;;3.57;;
14470;SDS011;7321;50.802;4.336;2024-03-23T09:35:26;7.63;;;3.83;;
14470;SDS011;7321;50.802;4.336;2024-03-23T09:37:52;9.70;;;3.97;;
14470;SDS011;7321;50.802;4.336;2024-03-23T09:40:22;9.90;;;3.73;;
14470;SDS011;7321;50.802;4.336;2024-03-23T09:42:51;7.80;;;2.70;;
14470;SDS011;7321;50.802;4.336;2024-03-23T09:45:20;9.33;;;3.67;;
14470;SDS011;7321;50.802;4.336;2024-03-23T09:47:47;8.97;;;3.40;;
14470;SDS011;7321;50.802;4.336;2024-03-23T09:50:13;7.23;;;3.47;;
14470;SDS011;7321;50.802;4.336;2024-03-23T09:52:39;7.53;;;2.93;;
14470;SDS011;7321;50.802;4.336;2024-03-23T09:55:08;6.93;;;3.60;;
14470;SDS011;7321;50.802;4.336;2024-03-23T09:57:35;6.63;;;3.00;;
14470;SDS011;7321;50.802;4.336;2024-03-23T10:00:01;8.37;;;3.70;;
14470;SDS011;7321;50.802;4.336;2024-03-23T10:02:28;9.27;;;4.17;;
14470;SDS011;7321;50.802;4.336;2024-03-23T10:04:54;11.37;;;5.50;;
14470;SDS011;7321;50.802;4.336;2024-03-23T10:07:20;7.57;;;5.13;;
14470;SDS011;7321;50.802;4.336;2024-03-23T10:09:50;9.03;;;3.97;;
14470;SDS011;7321;50.802;4.336;2024-03-23T10:12:23;9.50;;;3.70;;
14470;SDS011;7321;50.802;4.336;2024-03-23T10:14:50;4.73;;;2.53;;
14470;SDS011;7321;50.802;4.336;2024-03-23T10:17:20;3.90;;;3.40;;
14470;SDS011;7321;50.802;4.336;2024-03-23T10:19:50;11.70;;;5.30;;
14470;SDS011;7321;50.802;4.336;2024-03-23T10:22:21;12.90;;;9.10;;
14470;SDS011;7321;50.802;4.336;2024-03-23T10:24:48;7.33;;;3.50;;
14470;SDS011;7321;50.802;4.336;2024-03-23T10:27:18;8.13;;;2.87;;
14470;SDS011;7321;50.802;4.336;2024-03-23T10:29:48;6.13;;;3.00;;
14470;SDS011;7321;50.802;4.336;2024-03-23T10:32:15;10.93;;;3.20;;
14470;SDS011;7321;50.802;4.336;2024-03-23T10:34:43;8.13;;;4.30;;
14470;SDS011;7321;50.802;4.336;2024-03-23T10:37:11;6.07;;;2.50;;
14470;SDS011;7321;50.802;4.336;2024-03-23T10:39:39;3.93;;;2.03;;
14470;SDS011;7321;50.802;4.336;2024-03-23T10:42:08;7.83;;;4.00;;
14470;SDS011;7321;50.802;4.336;2024-03-23T10:44:36;12.13;;;8.63;;
14470;SDS011;7321;50.802;4.336;2024-03-23T10:47:04;6.63;;;3.40;;
14470;SDS011;7321;50.802;4.336;2024-03-23T10:49:34;9.37;;;4.30;;
14470;SDS011;7321;50.802;4.336;2024-03-23T10:52:08;6.53;;;2.53;;
14470;SDS011;7321;50.802;4.336;2024-03-23T10:54:34;5.50;;;2.90;;
14470;SDS011;7321;50.802;4.336;2024-03-23T11:00:06;7.10;;;3.23;;
14470;SDS011;7321;50.802;4.336;2024-03-23T11:02:34;10.80;;;7.50;;
14470;SDS011;7321;50.802;4.336;2024-03-23T11:05:00;5.27;;;3.47;;
14470;SDS011;7321;50.802;4.336;2024-03-23T11:07:30;6.60;;;4.33;;
14470;SDS011;7321;50.802;4.336;2024-03-23T11:09:59;8.57;;;2.40;;
14470;SDS011;7321;50.802;4.336;2024-03-23T11:12:26;4.97;;;2.57;;
14470;SDS011;7321;50.802;4.336;2024-03-23T11:15:13;6.63;;;2.50;;
14470;SDS011;7321;50.802;4.336;2024-03-23T11:17:42;4.53;;;1.97;;
14470;SDS011;7321;50.802;4.336;2024-03-23T11:20:33;4.67;;;1.80;;
14470;SDS011;7321;50.802;4.336;2024-03-23T11:23:03;6.30;;;1.70;;
14470;SDS011;7321;50.802;4.336;2024-03-23T11:25:30;5.53;;;1.90;;
14470;SDS011;7321;50.802;4.336;2024-03-23T11:28:18;3.67;;;1.77;;
14470;SDS011;7321;50.802;4.336;2024-03-23T11:30:53;2.90;;;1.40;;
14470;SDS011;7321;50.802;4.336;2024-03-23T11:33:18;5.30;;;1.77;;
14470;SDS011;7321;50.802;4.336;2024-03-23T11:35:51;6.63;;;2.10;;
14470;SDS011;7321;50.802;4.336;2024-03-23T11:38:19;4.77;;;1.97;;
14470;SDS011;7321;50.802;4.336;2024-03-23T11:40:49;5.53;;;1.50;;
14470;SDS011;7321;50.802;4.336;2024-03-23T11:43:16;6.43;;;1.67;;
14470;SDS011;7321;50.802;4.336;2024-03-23T11:45:44;5.47;;;1.67;;
14470;SDS011;7321;50.802;4.336;2024-03-23T11:48:29;6.87;;;1.97;;
14470;SDS011;7321;50.802;4.336;2024-03-23T11:51:01;5.57;;;2.03;;
14470;SDS011;7321;50.802;4.336;2024-03-23T11:53:34;7.43;;;3.70;;
14470;SDS011;7321;50.802;4.336;2024-03-23T11:56:08;4.03;;;1.80;;
14470;SDS011;7321;50.802;4.336;2024-03-23T11:58:37;5.10;;;1.90;;
14470;SDS011;7321;50.802;4.336;2024-03-23T12:01:03;6.00;;;3.90;;
14470;SDS011;7321;50.802;4.336;2024-03-23T12:03:32;9.40;;;4.20;;
14470;SDS011;7321;50.802;4.336;2024-03-23T12:06:03;7.73;;;2.70;;
14470;SDS011;7321;50.802;4.336;2024-03-23T12:08:34;7.43;;;2.67;;
14470;SDS011;7321;50.802;4.336;2024-03-23T12:11:08;9.33;;;2.57;;
14470;SDS011;7321;50.802;4.336;2024-03-23T12:13:44;7.67;;;3.43;;
14470;SDS011;7321;50.802;4.336;2024-03-23T12:16:18;7.47;;;3.40;;
14470;SDS011;7321;50.802;4.336;2024-03-23T12:18:55;4.13;;;1.83;;
14470;SDS011;7321;50.802;4.336;2024-03-23T12:21:41;8.20;;;2.27;;
14470;SDS011;7321;50.802;4.336;2024-03-23T12:24:13;5.87;;;2.10;;
14470;SDS011;7321;50.802;4.336;2024-03-23T12:26:42;6.70;;;2.40;;
14470;SDS011;7321;50.802;4.336;2024-03-23T12:29:15;4.03;;;2.07;;
14470;SDS011;7321;50.802;4.336;2024-03-23T12:31:49;11.70;;;6.87;;
14470;SDS011;7321;50.802;4.336;2024-03-23T12:34:15;4.90;;;2.43;;
14470;SDS011;7321;50.802;4.336;2024-03-23T12:36:41;6.20;;;2.03;;
14470;SDS011;7321;50.802;4.336;2024-03-23T12:39:07;6.80;;;3.67;;
14470;SDS011;7321;50.802;4.336;2024-03-23T12:41:33;7.27;;;2.50;;
14470;SDS011;7321;50.802;4.336;2024-03-23T12:43:59;8.60;;;6.00;;
14470;SDS011;7321;50.802;4.336;2024-03-23T12:46:40;6.07;;;3.50;;
14470;SDS011;7321;50.802;4.336;2024-03-23T12:49:07;3.47;;;1.90;;
14470;SDS011;7321;50.802;4.336;2024-03-23T12:51:36;8.07;;;2.43;;
14470;SDS011;7321;50.802;4.336;2024-03-23T12:54:09;5.03;;;2.17;;
14470;SDS011;7321;50.802;4.336;2024-03-23T12:56:38;4.83;;;1.70;;
14470;SDS011;7321;50.802;4.336;2024-03-23T12:59:07;4.20;;;1.77;;
14470;SDS011;7321;50.802;4.336;2024-03-23T13:01:37;5.40;;;2.40;;
14470;SDS011;7321;50.802;4.336;2024-03-23T13:04:17;4.50;;;1.60;;
14470;SDS011;7321;50.802;4.336;2024-03-23T13:06:51;3.13;;;1.20;;
14470;SDS011;7321;50.802;4.336;2024-03-23T13:09:17;2.97;;;1.10;;
14470;SDS011;7321;50.802;4.336;2024-03-23T13:11:43;2.90;;;1.40;;
14470;SDS011;7321;50.802;4.336;2024-03-23T13:14:09;3.70;;;1.47;;
14470;SDS011;7321;50.802;4.336;2024-03-23T13:16:38;6.17;;;1.73;;
14470;SDS011;7321;50.802;4.336;2024-03-23T13:19:05;7.47;;;3.43;;
14470;SDS011;7321;50.802;4.336;2024-03-23T13:21:31;6.33;;;2.53;;
14470;SDS011;7321;50.802;4.336;2024-03-23T13:23:57;6.13;;;2.17;;
14470;SDS011;7321;50.802;4.336;2024-03-23T13:26:23;5.33;;;2.43;;
14470;SDS011;7321;50.802;4.336;2024-03-23T13:28:49;6.50;;;3.17;;
14470;SDS011;7321;50.802;4.336;2024-03-23T13:31:15;5.13;;;2.63;;
14470;SDS011;7321;50.802;4.336;2024-03-23T13:33:44;6.33;;;3.30;;
14470;SDS011;7321;50.802;4.336;2024-03-23T13:36:10;7.10;;;3.87;;
14470;SDS011;7321;50.802;4.336;2024-03-23T13:38:36;10.20;;;4.37;;
14470;SDS011;7321;50.802;4.336;2024-03-23T13:41:05;9.80;;;4.23;;
14470;SDS011;7321;50.802;4.336;2024-03-23T13:43:33;8.30;;;3.63;;
14470;SDS011;7321;50.802;4.336;2024-03-23T13:45:59;4.10;;;1.70;;
14470;SDS011;7321;50.802;4.336;2024-03-23T13:48:28;7.23;;;3.23;;
14470;SDS011;7321;50.802;4.336;2024-03-23T13:51:01;9.13;;;3.40;;
14470;SDS011;7321;50.802;4.336;2024-03-23T13:53:28;5.27;;;2.00;;
14470;SDS011;7321;50.802;4.336;2024-03-23T13:55:59;3.90;;;1.50;;
14470;SDS011;7321;50.802;4.336;2024-03-23T13:58:29;5.03;;;1.57;;
14470;SDS011;7321;50.802;4.336;2024-03-23T14:00:58;3.60;;;1.33;;
14470;SDS011;7321;50.802;4.336;2024-03-23T14:03:24;4.60;;;2.73;;
14470;SDS011;7321;50.802;4.336;2024-03-23T14:05:50;5.73;;;2.23;;
14470;SDS011;7321;50.802;4.336;2024-03-23T14:08:18;2.23;;;1.00;;
14470;SDS011;7321;50.802;4.336;2024-03-23T14:10:49;6.03;;;3.23;;
14470;SDS011;7321;50.802;4.336;2024-03-23T14:13:19;4.87;;;2.23;;
14470;SDS011;7321;50.802;4.336;2024-03-23T14:15:45;4.00;;;1.40;;
14470;SDS011;7321;50.802;4.336;2024-03-23T14:18:11;10.27;;;5.13;;
14470;SDS011;7321;50.802;4.336;2024-03-23T14:20:39;4.37;;;1.80;;
14470;SDS011;7321;50.802;4.336;2024-03-23T14:23:10;5.80;;;3.30;;
14470;SDS011;7321;50.802;4.336;2024-03-23T14:25:36;4.00;;;1.50;;
14470;SDS011;7321;50.802;4.336;2024-03-23T14:28:11;4.90;;;1.70;;
14470;SDS011;7321;50.802;4.336;2024-03-23T14:30:43;4.90;;;1.50;;
14470;SDS011;7321;50.802;4.336;2024-03-23T14:33:09;5.40;;;1.37;;
14470;SDS011;7321;50.802;4.336;2024-03-23T14:36:04;2.37;;;1.10;;
14470;SDS011;7321;50.802;4.336;2024-03-23T14:38:30;4.33;;;1.80;;
14470;SDS011;7321;50.802;4.336;2024-03-23T14:40:59;5.60;;;1.70;;
14470;SDS011;7321;50.802;4.336;2024-03-23T14:43:43;4.60;;;1.53;;
14470;SDS011;7321;50.802;4.336;2024-03-23T14:46:20;5.70;;;1.80;;
14470;SDS011;7321;50.802;4.336;2024-03-23T14:48:48;6.37;;;1.70;;
14470;SDS011;7321;50.802;4.336;2024-03-23T14:51:31;3.90;;;1.53;;
14470;SDS011;7321;50.802;4.336;2024-03-23T14:54:03;4.70;;;1.50;;
14470;SDS011;7321;50.802;4.336;2024-03-23T14:56:45;2.77;;;1.40;;
14470;SDS011;7321;50.802;4.336;2024-03-23T14:59:15;5.00;;;1.50;;
14470;SDS011;7321;50.802;4.336;2024-03-23T15:01:44;5.17;;;1.80;;
14470;SDS011;7321;50.802;4.336;2024-03-23T15:04:22;3.70;;;1.60;;
14470;SDS011;7321;50.802;4.336;2024-03-23T15:06:51;4.87;;;1.87;;
14470;SDS011;7321;50.802;4.336;2024-03-23T15:09:32;6.03;;;2.07;;
14470;SDS011;7321;50.802;4.336;2024-03-23T15:12:04;7.93;;;3.10;;
14470;SDS011;7321;50.802;4.336;2024-03-23T15:14:53;6.23;;;1.73;;
14470;SDS011;7321;50.802;4.336;2024-03-23T15:17:48;4.67;;;1.50;;
14470;SDS011;7321;50.802;4.336;2024-03-23T15:20:20;5.60;;;1.80;;
14470;SDS011;7321;50.802;4.336;2024-03-23T15:22:58;6.33;;;3.20;;
14470;SDS011;7321;50.802;4.336;2024-03-23T15:25:24;48.23;;;32.07;;
14470;SDS011;7321;50.802;4.336;2024-03-23T15:30:46;6.43;;;1.87;;
14470;SDS011;7321;50.802;4.336;2024-03-23T15:33:14;4.53;;;1.57;;
14470;SDS011;7321;50.802;4.336;2024-03-23T15:36:18;5.50;;;1.57;;
14470;SDS011;7321;50.802;4.336;2024-03-23T15:39:27;3.93;;;1.57;;
14470;SDS011;7321;50.802;4.336;2024-03-23T15:41:59;6.17;;;2.00;;
14470;SDS011;7321;50.802;4.336;2024-03-23T15:44:39;6.23;;;2.17;;
14470;SDS011;7321;50.802;4.336;2024-03-23T15:47:08;5.03;;;1.80;;
14470;SDS011;7321;50.802;4.336;2024-03-23T15:49:54;3.70;;;1.60;;
14470;SDS011;7321;50.802;4.336;2024-03-23T15:52:25;5.60;;;1.70;;
14470;SDS011;7321;50.802;4.336;2024-03-23T15:59:02;4.97;;;1.73;;
14470;SDS011;7321;50.802;4.336;2024-03-23T16:01:36;3.70;;;1.33;;
14470;SDS011;7321;50.802;4.336;2024-03-23T16:04:10;4.37;;;1.93;;